Rhapsody Of The Seas — C6UA2 — position and weather

sailwx.info

Track history (hours):
 
Tides and Currents Weather Stations Pressure Air Temp Water Temp Dewpoint Dewpoint Depression Visibility Wind Speed Wind Dir Waves Ship Positions

Rhapsody Of The Seas

Last reported at 2017-Jan-20 07:00 UTC. Time now 2017-Jan-21 04:28 UTC.
Position N 22°18' W 085°48'.

Type: Passenger vessel. MMSI: 311805000.

Wind from 150 at 15 knots

Barometer 1013.0 mb
Air temperature 25.0 ° C
Dewpoint 22.2 ° C
Water temperature 27.0 ° C

Date/timePositionNaut miles runAvg speedWind from/ knotsBaromVisibWave heightAir tempDewpointWater temp
2017-Jan-20 07:00N 22°18' W 085°48'11014.6 150 / 151013.0 25.022.227.0
2017-Jan-19 23:27N 20°44' W 086°50'1315.1
2017-Jan-19 22:33N 20°33' W 086°58'4 3.9
2017-Jan-19 21:33N 20°29' W 086°59'0 0.0
2017-Jan-19 20:33N 20°29' W 086°59'0 0.0
2017-Jan-19 19:33N 20°29' W 086°59'0 0.0
2017-Jan-19 18:33N 20°29' W 086°59'0 0.0
2017-Jan-19 17:27N 20°29' W 086°59'0 0.0
2017-Jan-19 16:27N 20°29' W 086°59'0 0.0
2017-Jan-19 15:30N 20°29' W 086°59'0 0.0
2017-Jan-19 14:33N 20°29' W 086°59'0 0.0
2017-Jan-19 13:33N 20°29' W 086°59'0 0.0
2017-Jan-19 12:30N 20°29' W 086°59'0 0.2
2017-Jan-19 11:33N 20°29' W 086°59'5 4.9
2017-Jan-19 10:33N 20°28' W 087°04'34 9.4
2017-Jan-19 07:00N 19°54' W 087°06'110 4.8 090 / 161015.0 25.022.227.0
2017-Jan-18 08:00N 18°06' W 087°30'19 6.3 090 / 271016.0 27.022.827.0
2017-Jan-18 05:00N 17°48' W 087°36'54 2.6 100 / 27 27.0 27.022.825.0
2017-Jan-17 08:00N 16°54' W 087°36'124 5.0 090 / 251015.0 26.023.227.0
2017-Jan-16 07:00N 18°24' W 086°06'38119.1 090 / 271017.0 24.019.627.0
2017-Jan-15 11:00N 24°30' W 084°12'20217.3 090 / 301024.0 23.016.926.0
2017-Jan-14 23:17N 27°36' W 082°44'1115.2
2017-Jan-14 22:34N 27°42' W 082°33'1312.9
2017-Jan-14 21:34N 27°54' W 082°26'3 3.1
2017-Jan-14 20:33N 27°57' W 082°27'0 0.0
2017-Jan-14 19:34N 27°57' W 082°27'0 0.0
2017-Jan-14 18:34N 27°57' W 082°27'0 0.0
2017-Jan-14 17:34N 27°57' W 082°27'0 0.0
2017-Jan-14 16:33N 27°57' W 082°27'0 0.0
2017-Jan-14 15:34N 27°57' W 082°27'0 0.0
2017-Jan-14 14:34N 27°57' W 082°27'0 0.0
2017-Jan-14 13:34N 27°57' W 082°27'0 0.0
2017-Jan-14 12:34N 27°57' W 082°27'0 0.1
2017-Jan-14 11:34N 27°57' W 082°27'7 7.0
2017-Jan-14 10:33N 27°50' W 082°27'1413.2
2017-Jan-14 09:32N 27°39' W 082°37'15213.2
2017-Jan-13 22:00N 25°30' W 084°06'16814.0 080 / 251013.010.8 23.016.926.0
2017-Jan-13 10:00N 23°00' W 085°30'15816.4 090 / 281021.0 25.020.726.0
2017-Jan-13 00:21N 20°41' W 086°52'1315.8
2017-Jan-12 23:33N 20°31' W 086°59'2 1.5
2017-Jan-12 22:24N 20°29' W 086°59'0 0.0
2017-Jan-12 21:33N 20°29' W 086°59'0 0.0
2017-Jan-12 20:33N 20°29' W 086°59'0 0.0
2017-Jan-12 19:33N 20°29' W 086°59'0 0.0
2017-Jan-12 18:33N 20°29' W 086°59'0 0.0
2017-Jan-12 17:33N 20°29' W 086°59'0 0.0
2017-Jan-12 16:33N 20°29' W 086°59'0 0.0
2017-Jan-12 15:33N 20°29' W 086°59'0 0.0
2017-Jan-12 14:33N 20°29' W 086°59'0 0.0
2017-Jan-12 13:33N 20°29' W 086°59'0 0.0
2017-Jan-12 12:27N 20°29' W 086°59'0 0.0
2017-Jan-12 11:33N 20°29' W 086°59'2 2.1
2017-Jan-12 10:33N 20°31' W 086°59'8 8.3
2017-Jan-12 09:33N 20°38' W 086°55'23 4.9
2017-Jan-12 05:00N 20°24' W 086°36'136 7.6 090 / 38 26.018.626.0
2017-Jan-11 11:00N 18°18' W 087°30'   090 / 141018.0 24.021.127.0
Track history (hours):
 
Tides and Currents Weather Stations Pressure Air Temp Water Temp Dewpoint Dewpoint Depression Visibility Wind Speed Wind Dir Waves Ship Positions

Rhapsody Of The Seas

Last reported at 2017-Jan-20 07:00 UTC. Time now 2017-Jan-21 04:28 UTC.
Position N 22°18' W 085°48'.

Type: Passenger vessel. MMSI: 311805000.

Wind from 150 at 15 knots

Barometer 1013.0 mb
Air temperature 25.0 ° C
Dewpoint 22.2 ° C
Water temperature 27.0 ° C

Date/timePositionNaut miles runAvg speedWind from/ knotsBaromVisibWave heightAir tempDewpointWater temp
2017-Jan-20 07:00N 22°18' W 085°48'11014.6 150 / 151013.0 25.022.227.0
2017-Jan-19 23:27N 20°44' W 086°50'1315.1
2017-Jan-19 22:33N 20°33' W 086°58'4 3.9
2017-Jan-19 21:33N 20°29' W 086°59'0 0.0
2017-Jan-19 20:33N 20°29' W 086°59'0 0.0
2017-Jan-19 19:33N 20°29' W 086°59'0 0.0
2017-Jan-19 18:33N 20°29' W 086°59'0 0.0
2017-Jan-19 17:27N 20°29' W 086°59'0 0.0
2017-Jan-19 16:27N 20°29' W 086°59'0 0.0
2017-Jan-19 15:30N 20°29' W 086°59'0 0.0
2017-Jan-19 14:33N 20°29' W 086°59'0 0.0
2017-Jan-19 13:33N 20°29' W 086°59'0 0.0
2017-Jan-19 12:30N 20°29' W 086°59'0 0.2
2017-Jan-19 11:33N 20°29' W 086°59'5 4.9
2017-Jan-19 10:33N 20°28' W 087°04'34 9.4
2017-Jan-19 07:00N 19°54' W 087°06'110 4.8 090 / 161015.0 25.022.227.0
2017-Jan-18 08:00N 18°06' W 087°30'19 6.3 090 / 271016.0 27.022.827.0
2017-Jan-18 05:00N 17°48' W 087°36'54 2.6 100 / 27 27.0 27.022.825.0
2017-Jan-17 08:00N 16°54' W 087°36'124 5.0 090 / 251015.0 26.023.227.0
2017-Jan-16 07:00N 18°24' W 086°06'38119.1 090 / 271017.0 24.019.627.0
2017-Jan-15 11:00N 24°30' W 084°12'20217.3 090 / 301024.0 23.016.926.0
2017-Jan-14 23:17N 27°36' W 082°44'1115.2
2017-Jan-14 22:34N 27°42' W 082°33'1312.9
2017-Jan-14 21:34N 27°54' W 082°26'3 3.1
2017-Jan-14 20:33N 27°57' W 082°27'0 0.0
2017-Jan-14 19:34N 27°57' W 082°27'0 0.0
2017-Jan-14 18:34N 27°57' W 082°27'0 0.0
2017-Jan-14 17:34N 27°57' W 082°27'0 0.0
2017-Jan-14 16:33N 27°57' W 082°27'0 0.0
2017-Jan-14 15:34N 27°57' W 082°27'0 0.0
2017-Jan-14 14:34N 27°57' W 082°27'0 0.0
2017-Jan-14 13:34N 27°57' W 082°27'0 0.0
2017-Jan-14 12:34N 27°57' W 082°27'0 0.1
2017-Jan-14 11:34N 27°57' W 082°27'7 7.0
2017-Jan-14 10:33N 27°50' W 082°27'1413.2
2017-Jan-14 09:32N 27°39' W 082°37'15213.2
2017-Jan-13 22:00N 25°30' W 084°06'16814.0 080 / 251013.010.8 23.016.926.0
2017-Jan-13 10:00N 23°00' W 085°30'15816.4 090 / 281021.0 25.020.726.0
2017-Jan-13 00:21N 20°41' W 086°52'1315.8
2017-Jan-12 23:33N 20°31' W 086°59'2 1.5
2017-Jan-12 22:24N 20°29' W 086°59'0 0.0
2017-Jan-12 21:33N 20°29' W 086°59'0 0.0
2017-Jan-12 20:33N 20°29' W 086°59'0 0.0
2017-Jan-12 19:33N 20°29' W 086°59'0 0.0
2017-Jan-12 18:33N 20°29' W 086°59'0 0.0
2017-Jan-12 17:33N 20°29' W 086°59'0 0.0
2017-Jan-12 16:33N 20°29' W 086°59'0 0.0
2017-Jan-12 15:33N 20°29' W 086°59'0 0.0
2017-Jan-12 14:33N 20°29' W 086°59'0 0.0
2017-Jan-12 13:33N 20°29' W 086°59'0 0.0
2017-Jan-12 12:27N 20°29' W 086°59'0 0.0
2017-Jan-12 11:33N 20°29' W 086°59'2 2.1
2017-Jan-12 10:33N 20°31' W 086°59'8 8.3
2017-Jan-12 09:33N 20°38' W 086°55'23 4.9
2017-Jan-12 05:00N 20°24' W 086°36'136 7.6 090 / 38 26.018.626.0
2017-Jan-11 11:00N 18°18' W 087°30'   090 / 141018.0 24.021.127.0

Dump ship's entire track history